Time;durP1;ratioP1;P1;durP2;ratioP2;P2;SDS_P1;SDS_P2;PMS_P1;PMS_P2;Temp;Humidity;BMP_temperature;BMP_pressure;BME280_temperature;BME280_humidity;BME280_pressure;Samples;Min_cycle;Max_cycle;Signal;HPM_P1;HPM_P2
2024/02/22 00:00:39;;;;;;;4.20;2.42;;;13.70;99.90;;;;;;7380856;19;20310;-79
2024/02/22 00:03:07;;;;;;;;;;;13.50;99.90;;;;;;7382319;19;20023;-78
2024/02/22 00:05:36;;;;;;;4.55;2.30;;;13.60;99.90;;;;;;7383613;19;19972;-79
2024/02/22 00:08:05;;;;;;;2.50;1.90;;;13.60;99.90;;;;;;7382376;19;20002;-78
2024/02/22 00:10:34;;;;;;;4.65;2.13;;;13.70;99.90;;;;;;7399133;19;20010;-79
2024/02/22 00:13:03;;;;;;;3.90;2.47;;;13.70;99.90;;;;;;7379874;19;20019;-77
2024/02/22 00:15:32;;;;;;;2.72;2.20;;;13.70;99.90;;;;;;7377025;19;20003;-77
2024/02/22 00:18:04;;;;;;;2.67;2.17;;;13.70;99.90;;;;;;7381433;19;20019;-80
2024/02/22 00:20:32;;;;;;;2.42;2.10;;;13.80;99.90;;;;;;7381595;19;20010;-78
2024/02/22 00:23:02;;;;;;;3.38;2.20;;;13.90;99.90;;;;;;7380193;19;20435;-78
2024/02/22 00:25:31;;;;;;;2.97;2.30;;;13.80;99.90;;;;;;7401692;19;20482;-79
2024/02/22 00:27:59;;;;;;;2.08;1.88;;;13.90;99.90;;;;;;7381417;19;20010;-79
2024/02/22 00:30:28;;;;;;;3.95;2.00;;;13.40;99.90;;;;;;7383665;19;20027;-78
2024/02/22 00:32:57;;;;;;;1.88;1.75;;;13.60;99.90;;;;;;7385412;19;20027;-79
2024/02/22 00:35:28;;;;;;;2.08;1.77;;;13.60;99.90;;;;;;7386396;19;20098;-79
2024/02/22 00:37:57;;;;;;;2.03;1.83;;;13.60;99.90;;;;;;7383234;19;20015;-78
2024/02/22 00:40:26;;;;;;;2.60;1.73;;;13.60;99.90;;;;;;7404087;19;20019;-79
2024/02/22 00:42:54;;;;;;;1.90;1.80;;;13.60;99.90;;;;;;7381391;19;20006;-79
2024/02/22 00:45:23;;;;;;;1.90;1.65;;;13.80;99.90;;;;;;7381594;19;20084;-79
2024/02/22 00:47:52;;;;;;;1.70;1.60;;;13.70;99.90;;;;;;7381739;19;20007;-78
2024/02/22 00:50:21;;;;;;;2.58;1.40;;;13.60;99.90;;;;;;7379740;19;20002;-78
2024/02/22 00:52:53;;;;;;;1.55;1.45;;;13.70;99.90;;;;;;7381158;19;20070;-78
2024/02/22 00:55:22;;;;;;;1.42;1.30;;;13.60;99.90;;;;;;7399348;19;20649;-77
2024/02/22 00:57:51;;;;;;;1.45;1.35;;;13.80;99.90;;;;;;7379591;19;20010;-78
2024/02/22 01:00:20;;;;;;;2.28;1.67;;;13.70;99.90;;;;;;7380858;19;20139;-78
2024/02/22 01:02:49;;;;;;;1.77;1.65;;;13.60;99.90;;;;;;7381249;19;20090;-79
2024/02/22 01:05:17;;;;;;;1.58;1.48;;;13.90;99.90;;;;;;7382083;19;20007;-79
2024/02/22 01:07:46;;;;;;;1.42;1.33;;;13.90;99.90;;;;;;7401414;19;20268;-79
2024/02/22 01:10:19;;;;;;;1.73;1.55;;;14.00;99.90;;;;;;7382429;19;20434;-78
2024/02/22 01:12:48;;;;;;;1.42;1.02;;;14.00;99.90;;;;;;7385236;19;20389;-78
2024/02/22 01:15:17;;;;;;;1.17;1.08;;;14.00;99.90;;;;;;7384956;19;20025;-78
2024/02/22 01:17:47;;;;;;;1.45;0.98;;;14.00;99.90;;;;;;7388856;19;20007;-77
2024/02/22 01:20:18;;;;;;;1.58;1.48;;;14.00;99.90;;;;;;7385737;19;20015;-77
2024/02/22 01:22:47;;;;;;;1.50;1.40;;;13.90;99.90;;;;;;7407885;19;20003;-78
2024/02/22 01:25:18;;;;;;;2.42;1.02;;;13.70;99.90;;;;;;7386454;19;20007;-77
2024/02/22 01:27:47;;;;;;;1.55;1.20;;;13.60;99.90;;;;;;7387739;19;20025;-77
2024/02/22 01:30:16;;;;;;;0.98;0.90;;;13.90;99.90;;;;;;7384787;19;20006;-77
2024/02/22 01:32:44;;;;;;;1.42;1.10;;;13.80;99.90;;;;;;7383511;19;20090;-77
2024/02/22 01:35:13;;;;;;;0.95;0.95;;;13.80;99.90;;;;;;7383009;19;20018;-77
2024/02/22 01:37:42;;;;;;;1.10;1.10;;;13.70;99.90;;;;;;7403776;19;20604;-78
2024/02/22 01:40:14;;;;;;;2.88;1.33;;;14.00;99.90;;;;;;7385125;19;20098;-78
2024/02/22 01:42:46;;;;;;;1.60;1.40;;;14.00;99.90;;;;;;7385119;19;20046;-78
2024/02/22 01:45:14;;;;;;;1.73;1.30;;;14.00;99.90;;;;;;7386418;19;20070;-79
2024/02/22 01:47:44;;;;;;;1.25;1.15;;;14.10;99.90;;;;;;7382974;19;20007;-79
2024/02/22 01:50:15;;;;;;;1.55;1.15;;;13.90;99.90;;;;;;7382840;19;20022;-79
2024/02/22 01:52:44;;;;;;;1.23;1.17;;;13.80;99.90;;;;;;7407058;19;20027;-79
2024/02/22 01:55:16;;;;;;;1.52;1.42;;;13.90;99.90;;;;;;7384239;19;20062;-78
2024/02/22 01:57:47;;;;;;;;;;;13.80;99.90;;;;;;7382648;19;20312;-77
2024/02/22 02:00:17;;;;;;;1.40;1.30;;;13.70;99.90;;;;;;7384467;19;19903;-78
2024/02/22 02:02:47;;;;;;;1.30;1.20;;;13.90;99.90;;;;;;7383408;19;20313;-78
2024/02/22 02:05:16;;;;;;;1.75;1.27;;;14.00;99.90;;;;;;7390259;19;20010;-78
2024/02/22 02:07:46;;;;;;;2.92;1.48;;;14.10;99.90;;;;;;7406032;19;20014;-78
2024/02/22 02:10:15;;;;;;;1.42;1.10;;;13.90;99.90;;;;;;7391082;19;20044;-77
2024/02/22 02:12:43;;;;;;;3.08;1.15;;;13.90;99.90;;;;;;7402148;19;20002;-78
2024/02/22 02:15:18;;;;;;;5.13;1.25;;;13.90;99.90;;;;;;7392565;19;20337;-77
2024/02/22 02:17:47;;;;;;;1.05;1.00;;;13.90;99.90;;;;;;7389094;19;20010;-77
2024/02/22 02:20:17;;;;;;;3.92;1.00;;;13.80;99.90;;;;;;7402735;19;20377;-77
2024/02/22 02:22:55;;;;;;;2.88;0.93;;;13.90;99.90;;;;;;7417516;19;19999;-77
2024/02/22 02:25:28;;;;;;;1.40;1.00;;;13.90;99.90;;;;;;7394901;19;20437;-78
2024/02/22 02:27:57;;;;;;;2.03;1.05;;;14.10;99.90;;;;;;7382103;19;20030;-77
2024/02/22 02:30:26;;;;;;;0.95;0.95;;;14.20;99.90;;;;;;7381856;19;20605;-77
2024/02/22 02:32:55;;;;;;;2.90;1.10;;;14.10;99.90;;;;;;7383550;19;20002;-78
2024/02/22 02:35:23;;;;;;;4.07;0.93;;;14.10;99.90;;;;;;7381661;19;20318;-77
2024/02/22 02:37:52;;;;;;;1.30;1.20;;;14.30;99.90;;;;;;7387994;19;20341;-77
2024/02/22 02:40:21;;;;;;;1.20;0.77;;;14.30;99.90;;;;;;7399777;19;20011;-77
2024/02/22 02:42:52;;;;;;;0.82;0.80;;;14.30;99.90;;;;;;7382182;19;20353;-77
2024/02/22 02:45:21;;;;;;;1.58;1.20;;;14.00;99.90;;;;;;7381831;19;20011;-77
2024/02/22 02:47:49;;;;;;;2.55;1.10;;;13.60;99.90;;;;;;7382347;19;20034;-77
2024/02/22 02:50:18;;;;;;;0.85;0.80;;;13.80;99.90;;;;;;7382316;19;20020;-78
2024/02/22 02:52:47;;;;;;;1.33;1.00;;;14.00;99.90;;;;;;7405543;19;20238;-78
2024/02/22 02:55:16;;;;;;;2.17;1.15;;;14.20;99.90;;;;;;7380420;19;20006;-79
2024/02/22 02:57:45;;;;;;;8.38;1.30;;;14.10;99.90;;;;;;7380631;19;20349;-77
2024/02/22 03:00:17;;;;;;;2.42;1.42;;;14.00;99.90;;;;;;7382150;19;20007;-78
2024/02/22 03:02:48;;;;;;;2.75;1.40;;;14.20;99.90;;;;;;7384344;19;20006;-78
2024/02/22 03:05:17;;;;;;;2.00;1.52;;;14.20;99.90;;;;;;7386355;19;20011;-78
2024/02/22 03:07:45;;;;;;;1.40;1.17;;;14.10;99.90;;;;;;7402390;19;20051;-77
2024/02/22 03:10:14;;;;;;;1.33;1.20;;;13.80;99.90;;;;;;7378142;19;20023;-77
2024/02/22 03:12:43;;;;;;;2.00;1.50;;;14.10;99.90;;;;;;7379891;19;20023;-77
2024/02/22 03:15:13;;;;;;;3.78;1.70;;;14.10;99.90;;;;;;7381669;19;20021;-77
2024/02/22 03:17:44;;;;;;;11.75;1.77;;;14.20;99.90;;;;;;7382508;19;20475;-78
2024/02/22 03:20:13;;;;;;;2.53;1.80;;;14.30;99.90;;;;;;7381826;19;20278;-78
2024/02/22 03:22:42;;;;;;;17.27;2.10;;;14.30;99.90;;;;;;7401335;19;20018;-77
2024/02/22 03:25:12;;;;;;;1.38;1.17;;;14.10;99.90;;;;;;7379053;19;20272;-78
2024/02/22 03:27:44;;;;;;;2.38;1.42;;;14.10;99.90;;;;;;7380616;19;20025;-77
2024/02/22 03:30:16;;;;;;;3.45;1.48;;;13.90;99.90;;;;;;7379881;19;20011;-77
2024/02/22 03:32:47;;;;;;;1.80;1.55;;;14.10;99.90;;;;;;7380211;19;20006;-77
2024/02/22 03:35:16;;;;;;;1.40;1.30;;;14.00;99.90;;;;;;7380127;19;20102;-78
2024/02/22 03:37:44;;;;;;;3.97;1.23;;;13.60;99.90;;;;;;7398385;19;20228;-78
2024/02/22 03:40:14;;;;;;;1.98;1.00;;;13.80;99.90;;;;;;7379474;19;20019;-78
2024/02/22 03:42:43;;;;;;;0.85;0.85;;;14.00;99.90;;;;;;7380720;19;20018;-78
2024/02/22 03:45:12;;;;;;;0.80;0.80;;;14.00;99.90;;;;;;7379710;19;20227;-78
2024/02/22 03:47:41;;;;;;;0.70;0.70;;;14.10;99.90;;;;;;7381784;19;20023;-77
2024/02/22 03:50:13;;;;;;;1.25;0.93;;;14.10;99.90;;;;;;7384435;19;20014;-78
2024/02/22 03:52:42;;;;;;;0.50;0.50;;;14.00;99.90;;;;;;7401500;19;20027;-78
2024/02/22 03:55:11;;;;;;;0.68;0.65;;;14.10;99.90;;;;;;7382221;19;20014;-78
2024/02/22 03:57:41;;;;;;;0.60;0.60;;;14.20;99.90;;;;;;7383410;19;20103;-78
2024/02/22 04:00:11;;;;;;;1.42;0.90;;;14.30;99.90;;;;;;7383395;19;20516;-78
2024/02/22 04:02:41;;;;;;;0.57;0.57;;;14.30;99.90;;;;;;7379320;19;20392;-77
2024/02/22 04:05:13;;;;;;;1.05;1.00;;;14.20;99.90;;;;;;7380568;19;20011;-78
2024/02/22 04:07:42;;;;;;;;;;;14.30;99.90;;;;;;7402218;19;20086;-78
2024/02/22 04:10:11;;;;;;;0.60;0.60;;;13.90;99.90;;;;;;7382937;19;19934;-78
2024/02/22 04:12:40;;;;;;;0.63;0.60;;;14.00;99.90;;;;;;7383259;19;20034;-78
2024/02/22 04:15:10;;;;;;;0.50;0.50;;;14.00;99.90;;;;;;7382141;19;20027;-78
2024/02/22 04:17:39;;;;;;;0.70;0.70;;;14.10;99.90;;;;;;7377914;19;20010;-78
2024/02/22 04:20:12;;;;;;;0.77;0.50;;;13.90;99.90;;;;;;7378747;19;20011;-78
2024/02/22 04:22:51;;;;;;;0.63;0.50;;;14.10;99.90;;;;;;7398776;19;20026;-78
2024/02/22 04:25:20;;;;;;;0.60;0.60;;;14.10;99.90;;;;;;7378271;19;20476;-78
2024/02/22 04:27:48;;;;;;;0.40;0.40;;;14.20;99.90;;;;;;7378862;19;20459;-78
2024/02/22 04:30:18;;;;;;;0.82;0.60;;;14.00;99.90;;;;;;7378843;19;20011;-78
2024/02/22 04:32:47;;;;;;;0.50;0.50;;;14.20;99.90;;;;;;7378529;19;19999;-79
2024/02/22 04:35:16;;;;;;;15.90;1.27;;;14.20;99.90;;;;;;7378049;19;20007;-79
2024/02/22 04:37:45;;;;;;;0.40;0.40;;;14.30;99.90;;;;;;7398794;19;19999;-78
2024/02/22 04:40:17;;;;;;;0.43;0.43;;;14.40;99.90;;;;;;7379514;19;20024;-79
2024/02/22 04:42:45;;;;;;;1.00;0.60;;;14.40;99.90;;;;;;7379346;19;20051;-79
2024/02/22 04:45:14;;;;;;;4.43;0.60;;;14.40;99.90;;;;;;7381069;19;20365;-79
2024/02/22 04:47:43;;;;;;;0.50;0.50;;;14.50;99.90;;;;;;7380002;19;20023;-78
2024/02/22 04:50:12;;;;;;;0.43;0.43;;;14.20;99.90;;;;;;7383530;19;20016;-79
2024/02/22 04:52:42;;;;;;;0.55;0.50;;;14.40;99.90;;;;;;7410007;19;20012;-79
2024/02/22 04:55:12;;;;;;;1.23;0.60;;;14.20;99.90;;;;;;7391395;19;20048;-79
2024/02/22 04:57:43;;;;;;;0.50;0.40;;;14.20;99.90;;;;;;7394748;19;20043;-78
2024/02/22 05:00:13;;;;;;;0.65;0.50;;;14.20;99.90;;;;;;7403771;19;20003;-79
2024/02/22 05:02:43;;;;;;;1.30;0.38;;;14.20;99.90;;;;;;7404499;19;20011;-78
2024/02/22 05:05:12;;;;;;;0.50;0.50;;;14.30;99.90;;;;;;7406699;19;20063;-78
2024/02/22 05:07:40;;;;;;;3.97;0.50;;;14.20;99.90;;;;;;7429261;19;20262;-78
2024/02/22 05:10:10;;;;;;;0.60;0.60;;;14.20;99.90;;;;;;7404937;19;20273;-78
2024/02/22 05:12:39;;;;;;;0.70;0.50;;;14.40;99.90;;;;;;7402480;19;20281;-78
2024/02/22 05:15:12;;;;;;;0.57;0.57;;;14.40;99.90;;;;;;7387943;19;20002;-79
2024/02/22 05:17:41;;;;;;;0.40;0.40;;;14.30;99.90;;;;;;7386004;19;20027;-79
2024/02/22 05:20:11;;;;;;;1.85;0.65;;;14.40;99.90;;;;;;7385801;19;20075;-79
2024/02/22 05:22:40;;;;;;;2.65;0.65;;;14.40;99.90;;;;;;7404240;19;20007;-79
2024/02/22 05:25:09;;;;;;;1.33;0.70;;;14.30;99.90;;;;;;7384818;19;20401;-79
2024/02/22 05:27:38;;;;;;;0.70;0.70;;;14.20;99.90;;;;;;7384843;19;20070;-79
2024/02/22 05:30:11;;;;;;;0.82;0.75;;;14.40;99.90;;;;;;7384649;19;20352;-79
2024/02/22 05:32:41;;;;;;;1.08;0.93;;;14.20;99.90;;;;;;7384647;19;20002;-79
2024/02/22 05:35:10;;;;;;;0.80;0.80;;;14.10;99.90;;;;;;7382349;19;20248;-78
2024/02/22 05:37:39;;;;;;;1.10;0.95;;;14.20;99.90;;;;;;7403910;19;20053;-79
2024/02/22 05:40:09;;;;;;;1.17;0.82;;;14.20;99.90;;;;;;7384063;19;20007;-79
2024/02/22 05:42:38;;;;;;;1.20;1.10;;;14.40;99.90;;;;;;7385420;19;20219;-79
2024/02/22 05:45:11;;;;;;;2.72;1.25;;;14.40;99.90;;;;;;7387220;19;20587;-79
2024/02/22 05:47:40;;;;;;;3.65;1.20;;;14.40;99.90;;;;;;7386720;19;20027;-79
2024/02/22 05:50:09;;;;;;;4.82;1.33;;;14.40;99.90;;;;;;7384728;19;20357;-78
2024/02/22 05:52:38;;;;;;;0.68;0.68;;;14.40;99.90;;;;;;7404324;19;20050;-78
2024/02/22 05:55:08;;;;;;;3.05;0.95;;;14.40;99.90;;;;;;7384152;19;20007;-79
2024/02/22 05:57:39;;;;;;;1.00;1.00;;;14.30;99.90;;;;;;7384875;19;20250;-78
2024/02/22 06:00:10;;;;;;;1.10;1.00;;;14.20;99.90;;;;;;7385971;19;20259;-79
2024/02/22 06:02:39;;;;;;;1.00;0.93;;;14.00;99.90;;;;;;7387546;19;20003;-79
2024/02/22 06:05:08;;;;;;;0.73;0.70;;;14.20;99.90;;;;;;7383326;19;20693;-79
2024/02/22 06:07:37;;;;;;;0.80;0.80;;;14.00;99.90;;;;;;7405670;19;20027;-79
2024/02/22 06:10:09;;;;;;;0.63;0.50;;;13.90;99.90;;;;;;7382308;19;20007;-79
2024/02/22 06:12:40;;;;;;;0.80;0.80;;;13.90;99.90;;;;;;7383463;19;20013;-79
2024/02/22 06:15:12;;;;;;;0.60;0.60;;;13.80;99.90;;;;;;7384808;19;20027;-79
2024/02/22 06:17:41;;;;;;;0.70;0.70;;;14.10;99.90;;;;;;7383922;19;20024;-79
2024/02/22 06:20:12;;;;;;;0.55;0.55;;;14.20;99.90;;;;;;7381556;19;20010;-79
2024/02/22 06:22:41;;;;;;;1.00;0.82;;;14.30;99.90;;;;;;7406732;19;20078;-79
2024/02/22 06:25:12;;;;;;;0.95;0.80;;;14.20;99.90;;;;;;7383285;19;20011;-79
2024/02/22 06:27:42;;;;;;;;;;;13.70;99.90;;;;;;7384584;19;20030;-79
2024/02/22 06:30:15;;;;;;;4.50;1.70;;;13.70;99.90;;;;;;7382095;19;20478;-79
2024/02/22 06:32:45;;;;;;;1.08;0.85;;;14.00;99.90;;;;;;7381838;19;20007;-80
2024/02/22 06:35:13;;;;;;;0.65;0.60;;;14.20;99.90;;;;;;7382935;19;20244;-79
2024/02/22 06:37:43;;;;;;;1.77;0.75;;;14.00;99.90;;;;;;7405326;19;20019;-78
2024/02/22 06:40:14;;;;;;;0.70;0.70;;;14.00;99.90;;;;;;7384567;19;20015;-78
2024/02/22 06:42:43;;;;;;;0.80;0.80;;;14.10;99.90;;;;;;7385684;19;20043;-78
2024/02/22 06:45:18;;;;;;;1.08;0.80;;;14.20;99.90;;;;;;7385463;19;20011;-78
2024/02/22 06:47:47;;;;;;;0.98;0.60;;;14.40;99.90;;;;;;7384255;19;20015;-78
2024/02/22 06:50:16;;;;;;;4.15;0.73;;;14.40;99.90;;;;;;7383261;19;20002;-79
2024/02/22 06:52:55;;;;;;;2.10;0.90;;;14.20;99.90;;;;;;7402467;19;20007;-80
2024/02/22 06:55:35;;;;;;;4.63;0.70;;;14.00;99.90;;;;;;7385226;19;20211;-79
2024/02/22 06:58:04;;;;;;;1.30;0.52;;;14.10;99.90;;;;;;7383868;19;20062;-81
2024/02/22 07:00:51;;;;;;;0.60;0.60;;;13.60;99.90;;;;;;7382602;19;20010;-79
2024/02/22 07:03:19;;;;;;;1.08;0.98;;;13.70;99.90;;;;;;7382976;19;20034;-80
2024/02/22 07:05:50;;;;;;;1.00;0.75;;;13.90;99.90;;;;;;7381380;19;20014;-78
2024/02/22 07:08:19;;;;;;;0.50;0.50;;;14.10;99.90;;;;;;7383339;19;20454;-79
2024/02/22 07:10:47;;;;;;;0.93;0.65;;;14.10;99.90;;;;;;7403810;19;20026;-78
2024/02/22 07:13:16;;;;;;;1.00;0.45;;;14.10;99.90;;;;;;7379005;19;20007;-79
2024/02/22 07:15:53;;;;;;;3.00;0.50;;;14.30;99.90;;;;;;7380601;19;20006;-80
2024/02/22 07:18:21;;;;;;;0.73;0.70;;;14.50;99.90;;;;;;7381003;19;20024;-79
2024/02/22 07:20:54;;;;;;;3.47;0.52;;;14.50;99.90;;;;;;7379919;19;20010;-80
2024/02/22 07:23:23;;;;;;;0.63;0.63;;;14.60;99.90;;;;;;7382137;19;20042;-79
2024/02/22 07:25:51;;;;;;;0.50;0.50;;;14.60;99.90;;;;;;7392252;19;20006;-78
2024/02/22 07:28:20;;;;;;;0.98;0.50;;;14.60;99.90;;;;;;7403884;19;20010;-78
2024/02/22 07:30:52;;;;;;;1.30;0.50;;;14.50;99.90;;;;;;7382160;19;20017;-78
2024/02/22 07:33:20;;;;;;;1.23;0.50;;;14.50;99.90;;;;;;7381403;19;20009;-78
2024/02/22 07:35:50;;;;;;;0.60;0.50;;;14.30;99.90;;;;;;7383477;19;20010;-78
2024/02/22 07:38:18;;;;;;;0.40;0.40;;;14.50;99.90;;;;;;7384735;19;20313;-79
2024/02/22 07:40:47;;;;;;;0.65;0.65;;;14.50;99.90;;;;;;7406323;19;20038;-80
2024/02/22 07:43:16;;;;;;;0.65;0.50;;;14.50;99.90;;;;;;7383397;19;20006;-80
2024/02/22 07:45:46;;;;;;;3.83;0.63;;;14.60;99.90;;;;;;7381805;19;20007;-79
2024/02/22 07:48:17;;;;;;;0.50;0.50;;;14.60;99.90;;;;;;7390123;19;20003;-80
2024/02/22 07:50:46;;;;;;;0.52;0.52;;;14.60;99.90;;;;;;7395251;19;20002;-78
2024/02/22 07:53:14;;;;;;;2.30;0.50;;;14.70;99.90;;;;;;7396090;19;20018;-78
2024/02/22 07:55:43;;;;;;;3.22;0.60;;;14.70;99.90;;;;;;7414827;19;20010;-78
2024/02/22 07:58:12;;;;;;;0.47;0.40;;;14.80;99.90;;;;;;7393732;19;19998;-79
2024/02/22 08:00:41;;;;;;;0.65;0.50;;;14.30;99.90;;;;;;7383285;19;20027;-79
2024/02/22 08:03:09;;;;;;;1.00;0.50;;;14.30;99.90;;;;;;7379098;19;20027;-80
2024/02/22 08:05:41;;;;;;;2.05;0.50;;;14.30;99.90;;;;;;7379847;19;20018;-79
2024/02/22 08:08:09;;;;;;;0.50;0.50;;;14.40;99.90;;;;;;7380031;19;20018;-77
2024/02/22 08:10:39;;;;;;;0.60;0.30;;;14.50;99.90;;;;;;7404559;19;20071;-80
2024/02/22 08:13:08;;;;;;;0.63;0.30;;;14.10;99.90;;;;;;7381602;19;20009;-79
2024/02/22 08:15:36;;;;;;;29.02;14.40;;;14.10;99.90;;;;;;7383943;19;20018;-81
2024/02/22 08:18:06;;;;;;;15.50;8.38;;;14.20;99.90;;;;;;7379693;19;20010;-76
2024/02/22 08:20:37;;;;;;;2.22;1.38;;;14.40;99.90;;;;;;7378760;19;20002;-77
2024/02/22 08:23:09;;;;;;;0.77;0.60;;;14.40;99.90;;;;;;7380454;19;20006;-77
2024/02/22 08:25:39;;;;;;;0.47;0.40;;;14.10;99.90;;;;;;7407593;19;20011;-77
2024/02/22 08:28:11;;;;;;;1.75;0.50;;;14.20;99.90;;;;;;7378229;19;20003;-76
2024/02/22 08:30:40;;;;;;;0.55;0.43;;;14.30;99.90;;;;;;7381882;19;20010;-77
2024/02/22 08:33:11;;;;;;;0.93;0.43;;;14.20;99.90;;;;;;7378949;19;20010;-77
2024/02/22 08:35:40;;;;;;;1.15;0.57;;;14.30;99.90;;;;;;7379190;19;20006;-75
2024/02/22 08:38:12;;;;;;;0.60;0.52;;;13.90;99.90;;;;;;7376853;19;20402;-75
2024/02/22 08:40:42;;;;;;;3.60;0.55;;;14.10;99.90;;;;;;7398878;19;20038;-76
2024/02/22 08:43:10;;;;;;;0.30;0.30;;;14.20;99.90;;;;;;7376917;19;20003;-76
2024/02/22 08:45:39;;;;;;;0.80;0.45;;;13.90;99.90;;;;;;7377485;19;20066;-75
2024/02/22 08:48:09;;;;;;;0.25;0.25;;;14.10;99.90;;;;;;7377707;19;20019;-76
2024/02/22 08:50:38;;;;;;;0.40;0.40;;;14.10;99.90;;;;;;7377860;19;20007;-75
2024/02/22 08:53:08;;;;;;;0.68;0.38;;;14.20;99.90;;;;;;7376201;19;20062;-74
2024/02/22 08:55:40;;;;;;;0.50;0.50;;;14.20;99.90;;;;;;7398791;19;20357;-75
2024/02/22 08:58:10;;;;;;;0.45;0.45;;;13.90;99.90;;;;;;7376588;19;20013;-75
2024/02/22 09:00:39;;;;;;;0.82;0.30;;;14.10;99.90;;;;;;7376731;19;20093;-74
2024/02/22 09:03:09;;;;;;;2.38;0.68;;;14.00;99.90;;;;;;7377326;19;20345;-75
2024/02/22 09:05:38;;;;;;;1.42;0.57;;;14.30;99.90;;;;;;7377630;19;20030;-73
2024/02/22 09:08:07;;;;;;;0.75;0.70;;;13.90;99.90;;;;;;7376886;19;20009;-75
2024/02/22 09:10:38;;;;;;;1.05;0.60;;;14.20;99.90;;;;;;7398671;19;20010;-76
2024/02/22 09:13:07;;;;;;;0.65;0.40;;;14.40;99.90;;;;;;7374842;19;20074;-75
2024/02/22 09:15:36;;;;;;;1.52;0.35;;;14.40;99.90;;;;;;7375787;19;20326;-75
2024/02/22 09:18:05;;;;;;;0.30;0.30;;;14.10;99.90;;;;;;7376749;19;20003;-76
2024/02/22 09:20:34;;;;;;;2.60;0.98;;;14.40;99.90;;;;;;7376668;19;20023;-75
2024/02/22 09:23:04;;;;;;;0.52;0.43;;;14.50;99.90;;;;;;7377136;19;20062;-76
2024/02/22 09:25:33;;;;;;;0.38;0.38;;;14.20;99.90;;;;;;7398041;19;20019;-75
2024/02/22 09:28:04;;;;;;;3.05;0.50;;;13.90;99.90;;;;;;7375880;19;20606;-75
2024/02/22 09:30:33;;;;;;;0.35;0.35;;;14.20;99.90;;;;;;7376556;19;20010;-76
2024/02/22 09:33:03;;;;;;;0.30;0.30;;;14.10;99.90;;;;;;7376504;19;20546;-75
2024/02/22 09:35:33;;;;;;;1.30;0.50;;;13.90;99.90;;;;;;7379633;19;20020;-76
2024/02/22 09:38:01;;;;;;;0.50;0.50;;;13.70;99.90;;;;;;7384388;19;20416;-76
2024/02/22 09:40:30;;;;;;;0.40;0.40;;;13.60;99.90;;;;;;7405194;19;20007;-75
2024/02/22 09:42:59;;;;;;;0.52;0.52;;;13.90;99.90;;;;;;7382886;19;20074;-76
2024/02/22 09:45:31;;;;;;;0.82;0.60;;;14.10;99.90;;;;;;7383507;19;20002;-75
2024/02/22 09:48:00;;;;;;;0.55;0.55;;;14.20;99.90;;;;;;7383683;19;20010;-77
2024/02/22 09:50:28;;;;;;;0.80;0.80;;;14.30;99.90;;;;;;7383400;19;20013;-77
2024/02/22 09:52:59;;;;;;;2.13;0.90;;;14.40;99.90;;;;;;7396591;19;20031;-75
2024/02/22 09:55:28;;;;;;;2.03;0.80;;;14.20;99.90;;;;;;7403938;19;20014;-76
2024/02/22 09:57:57;;;;;;;0.70;0.70;;;14.00;99.90;;;;;;7382244;19;20019;-74
2024/02/22 10:00:25;;;;;;;0.68;0.60;;;14.20;99.90;;;;;;7382771;19;20054;-75
2024/02/22 10:02:57;;;;;;;1.00;0.80;;;14.30;99.90;;;;;;7382188;19;20289;-74
2024/02/22 10:05:25;;;;;;;1.88;0.90;;;14.30;99.90;;;;;;7382440;19;20002;-75
2024/02/22 10:07:54;;;;;;;2.65;0.80;;;14.10;99.90;;;;;;7404254;19;20259;-78
2024/02/22 10:10:29;;;;;;;2.88;1.20;;;14.40;99.90;;;;;;7384110;19;20011;-78
2024/02/22 10:12:59;;;;;;;2.95;1.08;;;14.30;99.90;;;;;;7382188;19;20079;-75
2024/02/22 10:15:30;;;;;;;1.80;1.10;;;14.60;99.90;;;;;;7382049;19;20003;-75
2024/02/22 10:18:01;;;;;;;2.30;1.10;;;14.70;99.90;;;;;;7381396;19;20247;-73
2024/02/22 10:20:35;;;;;;;3.55;1.20;;;14.60;99.90;;;;;;7381805;19;20011;-74
2024/02/22 10:23:08;;;;;;;3.38;1.60;;;14.70;99.90;;;;;;7383188;19;20095;-74
2024/02/22 10:25:39;;;;;;;1.25;1.15;;;14.70;99.90;;;;;;7403501;19;20341;-77
2024/02/22 10:28:10;;;;;;;3.73;1.20;;;14.60;99.90;;;;;;7381133;19;20070;-77
2024/02/22 10:30:40;;;;;;;3.95;1.30;;;14.60;99.90;;;;;;7381048;19;20017;-76
2024/02/22 10:33:13;;;;;;;1.48;1.30;;;14.70;99.90;;;;;;7381870;19;20007;-76
2024/02/22 10:35:44;;;;;;;1.98;1.23;;;14.40;99.90;;;;;;7385458;19;20082;-76
2024/02/22 10:38:13;;;;;;;1.30;0.97;;;14.30;99.90;;;;;;7389329;19;20007;-77
2024/02/22 10:40:43;;;;;;;1.60;1.13;;;14.40;99.90;;;;;;7409316;19;20269;-77
2024/02/22 10:43:14;;;;;;;3.00;1.30;;;14.40;99.90;;;;;;7386915;19;20006;-76
2024/02/22 10:45:43;;;;;;;2.00;1.33;;;14.60;99.90;;;;;;7388152;19;20006;-78
2024/02/22 10:48:15;;;;;;;2.75;1.30;;;14.50;99.90;;;;;;7388256;19;20025;-77
2024/02/22 10:50:46;;;;;;;2.38;1.30;;;14.50;99.90;;;;;;7390019;19;20015;-79
2024/02/22 10:53:15;;;;;;;;;;;14.50;99.90;;;;;;7384115;19;20018;-79
2024/02/22 10:55:51;;;;;;;2.75;1.20;;;14.30;99.90;;;;;;7400662;19;19903;-77
2024/02/22 10:58:22;;;;;;;1.95;1.38;;;14.00;99.90;;;;;;7379574;19;20028;-76
2024/02/22 11:00:55;;;;;;;5.65;1.38;;;14.40;99.90;;;;;;7380001;19;20079;-76
2024/02/22 11:03:28;;;;;;;2.10;1.40;;;14.60;99.90;;;;;;7381286;19;20384;-77
2024/02/22 11:05:59;;;;;;;1.23;1.00;;;14.50;99.90;;;;;;7383286;19;20006;-77
2024/02/22 11:08:30;;;;;;;1.60;1.15;;;14.70;99.90;;;;;;7381024;19;20237;-78
2024/02/22 11:11:07;;;;;;;5.47;1.10;;;14.80;99.90;;;;;;7404798;19;20040;-79
2024/02/22 11:13:36;;;;;;;4.22;1.00;;;14.70;99.90;;;;;;7382027;19;20010;-77
2024/02/22 11:16:15;;;;;;;1.60;1.15;;;14.80;99.90;;;;;;7381076;19;19999;-75
2024/02/22 11:18:49;;;;;;;1.38;0.82;;;14.70;99.90;;;;;;7381723;19;20023;-77
2024/02/22 11:21:20;;;;;;;1.05;0.75;;;14.80;99.90;;;;;;7380553;19;20007;-77
2024/02/22 11:23:49;;;;;;;1.33;0.77;;;14.60;99.90;;;;;;7380161;19;20006;-77
2024/02/22 11:26:17;;;;;;;2.35;1.00;;;14.70;99.90;;;;;;7380449;19;20010;-77
2024/02/22 11:28:54;;;;;;;0.60;0.60;;;14.70;99.90;;;;;;7401889;19;20011;-77
2024/02/22 11:31:23;;;;;;;3.90;0.80;;;14.70;99.90;;;;;;7380198;19;20066;-77
2024/02/22 11:33:57;;;;;;;3.88;1.08;;;14.60;99.90;;;;;;7380989;19;20018;-77
2024/02/22 11:36:27;;;;;;;0.60;0.50;;;14.90;99.90;;;;;;7383439;19;20007;-77
2024/02/22 11:39:04;;;;;;;1.58;0.77;;;15.00;99.90;;;;;;7385098;19;20007;-78
2024/02/22 11:41:33;;;;;;;2.67;0.95;;;14.90;99.90;;;;;;7381827;19;20108;-77
2024/02/22 11:44:07;;;;;;;1.70;0.70;;;14.70;99.90;;;;;;7402096;19;20020;-77
2024/02/22 11:46:37;;;;;;;4.38;0.82;;;14.80;99.90;;;;;;7379870;19;19998;-77
2024/02/22 11:49:09;;;;;;;0.77;0.77;;;14.60;99.90;;;;;;7378714;19;20385;-76
2024/02/22 11:51:40;;;;;;;2.08;1.08;;;14.80;99.90;;;;;;7378953;19;20020;-77
2024/02/22 11:54:08;;;;;;;1.73;0.82;;;14.80;99.90;;;;;;7378692;19;20086;-77
2024/02/22 11:56:38;;;;;;;2.38;0.93;;;14.90;99.90;;;;;;7378954;19;20078;-77
2024/02/22 11:59:08;;;;;;;2.55;1.00;;;14.40;99.90;;;;;;7396446;19;20017;-76
2024/02/22 12:01:39;;;;;;;2.13;1.05;;;14.60;99.90;;;;;;7400734;19;20103;-77
2024/02/22 12:04:11;;;;;;;1.45;1.00;;;14.60;99.90;;;;;;7378729;19;20014;-77
2024/02/22 12:06:40;;;;;;;2.08;0.98;;;14.70;99.90;;;;;;7379226;19;20006;-77
2024/02/22 12:09:13;;;;;;;5.47;1.13;;;14.70;99.90;;;;;;7379408;19;20069;-78
2024/02/22 12:11:44;;;;;;;1.88;0.88;;;14.90;99.90;;;;;;7380615;19;20314;-79
2024/02/22 12:14:16;;;;;;;1.83;0.80;;;14.90;99.90;;;;;;7382529;19;20007;-79
2024/02/22 12:16:47;;;;;;;2.35;0.90;;;14.70;99.90;;;;;;7409080;19;20003;-77
2024/02/22 12:19:20;;;;;;;2.65;1.10;;;14.90;99.90;;;;;;7381439;19;20014;-78
2024/02/22 12:21:52;;;;;;;1.63;0.85;;;15.00;99.90;;;;;;7380484;19;20010;-78
2024/02/22 12:24:21;;;;;;;1.70;1.00;;;15.10;99.90;;;;;;7379959;19;20002;-78
2024/02/22 12:26:54;;;;;;;1.92;1.02;;;15.20;99.90;;;;;;7381048;19;20075;-79
2024/02/22 12:29:23;;;;;;;1.10;0.70;;;15.20;99.90;;;;;;7384528;19;20028;-77
2024/02/22 12:32:02;;;;;;;0.52;0.52;;;15.20;99.90;;;;;;7403121;19;20002;-77
2024/02/22 12:34:53;;;;;;;2.40;0.98;;;14.80;99.90;;;;;;7381449;19;20050;-83
2024/02/22 12:37:23;;;;;;;0.90;0.90;;;14.90;99.90;;;;;;7388996;19;20035;-80
2024/02/22 12:39:52;;;;;;;5.78;0.90;;;14.90;99.90;;;;;;7385857;19;20068;-79
2024/02/22 12:42:22;;;;;;;1.05;0.93;;;15.00;99.90;;;;;;7383939;19;20079;-80
2024/02/22 12:44:52;;;;;;;1.83;0.80;;;15.10;99.90;;;;;;7383952;19;20018;-79
2024/02/22 12:47:30;;;;;;;1.90;1.00;;;15.00;99.90;;;;;;7381641;19;20020;-80
2024/02/22 12:50:04;;;;;;;1.08;0.57;;;15.10;99.90;;;;;;7406195;19;20010;-80
2024/02/22 12:52:33;;;;;;;0.77;0.77;;;15.10;99.90;;;;;;7382154;19;20011;-79
2024/02/22 12:55:03;;;;;;;2.20;0.82;;;14.70;99.90;;;;;;7382409;19;20027;-78
2024/02/22 12:57:30;;;;;;;2.20;0.88;;;14.70;99.90;;;;;;7382471;19;20025;-79
2024/02/22 12:59:58;;;;;;;2.55;0.98;;;14.70;99.90;;;;;;7377040;19;20345;-78
2024/02/22 13:02:27;;;;;;;0.70;0.70;;;14.80;99.90;;;;;;7377711;19;20055;-77